createdAt,value
2018-08-31T00:01:58.998Z,80.71
2018-08-31T00:04:39.738Z,80.79
2018-08-31T00:07:28.788Z,80.68
2018-08-31T00:10:09.579Z,80.90
2018-08-31T00:12:38.496Z,81.04
2018-08-31T00:15:06.979Z,80.98
2018-08-31T00:17:35.379Z,81.09
2018-08-31T00:20:03.490Z,81.13
2018-08-31T00:22:31.671Z,80.98
2018-08-31T00:25:11.040Z,81.08
2018-08-31T00:27:50.499Z,81.58
2018-08-31T00:30:30.062Z,82.13
2018-08-31T00:33:10.887Z,81.37
2018-08-31T00:38:08.772Z,81.27
2018-08-31T00:41:52.903Z,81.00
2018-08-31T00:44:30.012Z,81.30
2018-08-31T00:46:58.075Z,81.16
2018-08-31T00:49:26.128Z,81.56
2018-08-31T00:51:54.267Z,81.49
2018-08-31T00:54:22.369Z,81.45
2018-08-31T00:56:50.445Z,81.18
2018-08-31T00:59:18.506Z,82.31
2018-08-31T01:01:46.563Z,82.24
2018-08-31T01:04:14.636Z,82.24
2018-08-31T01:06:42.708Z,81.66
2018-08-31T01:09:10.766Z,80.51
2018-08-31T01:11:39.097Z,80.30
2018-08-31T01:14:07.127Z,80.79
2018-08-31T01:16:35.239Z,80.64
2018-08-31T01:19:03.312Z,81.09
2018-08-31T01:21:31.396Z,81.04
2018-08-31T01:23:59.499Z,81.37
2018-08-31T01:26:27.720Z,81.69
2018-08-31T01:28:55.763Z,81.55
2018-08-31T01:31:23.822Z,81.48
2018-08-31T01:33:51.883Z,81.59
2018-08-31T01:36:19.959Z,81.40
2018-08-31T01:38:48.035Z,81.85
2018-08-31T01:41:16.118Z,81.58
2018-08-31T01:43:44.204Z,82.09
2018-08-31T01:46:12.255Z,81.58
2018-08-31T01:48:40.319Z,81.64
2018-08-31T01:51:13.822Z,81.36
2018-08-31T01:53:41.919Z,81.76
2018-08-31T01:56:09.989Z,82.11
2018-08-31T01:58:38.039Z,82.36
2018-08-31T02:01:06.168Z,82.30
2018-08-31T02:03:34.255Z,82.17
2018-08-31T02:06:02.319Z,82.05
2018-08-31T02:08:30.451Z,83.10
2018-08-31T02:10:58.513Z,82.12
2018-08-31T02:13:26.584Z,81.77
2018-08-31T02:15:54.637Z,81.38
2018-08-31T02:18:22.743Z,82.36
2018-08-31T02:20:51.307Z,83.52
2018-08-31T02:23:19.484Z,82.07
2018-08-31T02:25:47.595Z,82.24
2018-08-31T02:28:15.737Z,82.50
2018-08-31T02:30:43.797Z,81.73
2018-08-31T02:33:11.890Z,82.27
2018-08-31T02:35:39.957Z,81.94
2018-08-31T02:38:08.013Z,81.70
2018-08-31T02:40:36.085Z,81.65
2018-08-31T02:43:04.175Z,81.84
2018-08-31T02:45:32.464Z,81.48
2018-08-31T02:48:00.534Z,80.89
2018-08-31T02:50:28.581Z,80.57
2018-08-31T02:53:03.007Z,80.11
2018-08-31T02:58:05.700Z,81.11
2018-08-31T03:00:33.794Z,81.29
2018-08-31T03:03:02.574Z,80.67
2018-08-31T03:05:31.253Z,80.94
2018-08-31T03:07:59.353Z,79.78
2018-08-31T03:10:27.402Z,79.66
2018-08-31T03:12:55.474Z,79.68
2018-08-31T03:15:23.531Z,80.31
2018-08-31T03:17:51.621Z,81.00
2018-08-31T03:20:19.699Z,81.54
2018-08-31T03:22:47.748Z,81.04
2018-08-31T03:25:15.833Z,80.22
2018-08-31T03:27:43.957Z,80.63
2018-08-31T03:30:12.009Z,80.86
2018-08-31T03:32:40.092Z,80.91
2018-08-31T03:35:08.316Z,81.14
2018-08-31T03:37:36.392Z,81.11
2018-08-31T03:40:04.532Z,81.43
2018-08-31T03:42:32.601Z,81.62
2018-08-31T03:45:00.673Z,81.50
2018-08-31T03:47:28.743Z,81.75
2018-08-31T03:49:56.816Z,82.00
2018-08-31T03:52:24.880Z,81.76
2018-08-31T03:54:52.972Z,82.97
2018-08-31T03:57:21.058Z,82.87
2018-08-31T03:59:49.147Z,83.43
2018-08-31T04:02:17.397Z,82.02
2018-08-31T04:04:45.479Z,81.39
2018-08-31T04:07:13.548Z,81.21
2018-08-31T04:09:41.805Z,82.44
2018-08-31T04:12:09.837Z,81.55
2018-08-31T04:14:37.915Z,81.29
2018-08-31T04:17:06.019Z,82.81
2018-08-31T04:19:34.084Z,82.80
2018-08-31T04:22:02.165Z,81.64
2018-08-31T04:24:30.259Z,81.50
2018-08-31T04:26:58.316Z,81.34
2018-08-31T04:29:26.412Z,81.85
2018-08-31T04:31:54.460Z,81.58
2018-08-31T04:34:22.587Z,81.82
2018-08-31T04:36:50.692Z,81.60
2018-08-31T04:39:18.780Z,81.70
2018-08-31T04:41:46.858Z,81.83
2018-08-31T04:44:15.076Z,82.23
2018-08-31T04:46:43.187Z,81.79
2018-08-31T04:49:11.270Z,81.84
2018-08-31T04:51:40.126Z,81.89
2018-08-31T04:54:08.189Z,82.97
2018-08-31T04:56:36.280Z,81.25
2018-08-31T04:59:08.755Z,81.04
2018-08-31T05:01:36.830Z,81.04
2018-08-31T05:04:04.932Z,80.70
2018-08-31T05:06:32.999Z,80.73
2018-08-31T05:09:01.129Z,80.52
2018-08-31T05:11:29.909Z,81.36
2018-08-31T05:13:57.991Z,79.32
2018-08-31T05:16:26.080Z,78.25
2018-08-31T05:18:54.138Z,78.57
2018-08-31T05:21:22.440Z,77.69
2018-08-31T05:23:50.548Z,77.38
2018-08-31T05:26:18.766Z,77.73
2018-08-31T05:28:46.903Z,77.11
2018-08-31T05:31:14.992Z,75.89
2018-08-31T05:33:43.063Z,76.19
2018-08-31T05:36:11.128Z,76.23
2018-08-31T05:38:46.756Z,76.07
2018-08-31T05:41:14.806Z,75.11
2018-08-31T05:43:42.850Z,74.53
2018-08-31T05:46:17.912Z,74.57
2018-08-31T05:48:49.463Z,74.48
2018-08-31T05:51:20.291Z,73.41
2018-08-31T05:53:48.397Z,73.20
2018-08-31T05:56:16.475Z,73.19
2018-08-31T05:58:45.480Z,72.68
2018-08-31T06:01:13.606Z,72.31
2018-08-31T06:03:41.643Z,72.26
2018-08-31T06:06:09.699Z,71.86
2018-08-31T06:08:37.781Z,71.46
2018-08-31T06:11:06.793Z,71.11
2018-08-31T06:13:34.846Z,70.63
2018-08-31T06:16:02.888Z,70.12
2018-08-31T06:18:30.920Z,68.97
2018-08-31T06:20:59.109Z,69.14
2018-08-31T06:23:27.124Z,68.79
2018-08-31T06:25:55.276Z,69.17
2018-08-31T06:31:10.791Z,69.12
2018-08-31T06:33:39.547Z,68.81
2018-08-31T06:36:08.589Z,68.26
2018-08-31T06:38:37.351Z,67.75
2018-08-31T06:41:06.186Z,67.56
2018-08-31T06:43:34.920Z,67.69
2018-08-31T06:46:03.763Z,67.12
2018-08-31T06:48:32.499Z,65.68
2018-08-31T06:51:00.571Z,66.11
2018-08-31T06:53:28.629Z,66.10
2018-08-31T06:55:56.711Z,64.62
2018-08-31T06:58:24.801Z,65.06
2018-08-31T07:00:52.851Z,65.64
2018-08-31T07:03:20.875Z,65.30
2018-08-31T07:05:49.226Z,64.11
2018-08-31T07:08:17.264Z,63.65
2018-08-31T07:10:45.303Z,63.24
2018-08-31T07:13:13.432Z,63.64
2018-08-31T07:15:41.618Z,63.66
2018-08-31T07:18:09.732Z,63.40
2018-08-31T07:20:37.913Z,63.37
2018-08-31T07:23:05.977Z,63.32
2018-08-31T07:25:34.027Z,63.11
2018-08-31T07:28:02.112Z,64.44
2018-08-31T07:30:30.195Z,63.26
2018-08-31T07:32:58.409Z,63.97
2018-08-31T07:35:26.539Z,64.01
2018-08-31T07:37:54.594Z,62.88
2018-08-31T07:40:22.623Z,63.37
2018-08-31T07:42:50.647Z,63.22
2018-08-31T07:45:18.858Z,61.68
2018-08-31T07:47:47.014Z,62.92
2018-08-31T07:50:15.054Z,61.94
2018-08-31T07:52:43.084Z,62.28
2018-08-31T07:55:11.111Z,62.34
2018-08-31T07:57:39.868Z,61.09
2018-08-31T08:00:07.946Z,60.13
2018-08-31T08:02:35.979Z,59.34
2018-08-31T08:05:04.135Z,59.06
2018-08-31T08:07:32.183Z,58.85
2018-08-31T08:10:00.243Z,57.21
2018-08-31T08:12:28.349Z,56.97
2018-08-31T08:14:56.384Z,57.66
2018-08-31T08:17:24.423Z,55.81
2018-08-31T08:19:52.463Z,56.11
2018-08-31T08:22:20.495Z,56.22
2018-08-31T08:24:48.979Z,56.27
2018-08-31T08:27:17.055Z,55.67
2018-08-31T08:29:45.526Z,55.99
2018-08-31T08:32:13.649Z,55.21
2018-08-31T08:34:41.809Z,55.50
2018-08-31T08:37:09.859Z,56.01
2018-08-31T08:39:37.985Z,53.77
2018-08-31T08:42:06.199Z,55.07
2018-08-31T08:44:34.187Z,55.30
2018-08-31T08:47:02.308Z,55.49
2018-08-31T08:49:30.746Z,54.13
2018-08-31T08:52:02.751Z,55.12
2018-08-31T08:54:31.930Z,54.16
2018-08-31T08:57:00.659Z,54.43
2018-08-31T08:59:28.789Z,52.84
2018-08-31T09:01:57.923Z,54.44
2018-08-31T09:04:27.428Z,53.60
2018-08-31T09:06:55.667Z,52.55
2018-08-31T09:09:23.846Z,51.76
2018-08-31T09:11:51.993Z,52.83
2018-08-31T09:14:20.074Z,52.67
2018-08-31T09:16:48.341Z,52.88
2018-08-31T09:19:16.463Z,51.66
2018-08-31T09:21:44.535Z,53.65
2018-08-31T09:24:12.646Z,53.31
2018-08-31T09:26:40.715Z,51.55
2018-08-31T09:29:08.795Z,52.45
2018-08-31T09:31:37.295Z,51.71
2018-08-31T09:34:05.385Z,53.75
2018-08-31T09:36:33.508Z,53.43
2018-08-31T09:39:02.011Z,52.24
2018-08-31T09:41:30.150Z,52.34
2018-08-31T09:43:58.505Z,52.13
2018-08-31T09:46:26.534Z,49.95
2018-08-31T09:48:54.607Z,49.52
2018-08-31T09:51:22.751Z,49.61
2018-08-31T09:53:50.800Z,49.92
2018-08-31T09:56:18.856Z,49.14
2018-08-31T09:58:46.910Z,50.16
2018-08-31T10:01:20.396Z,49.58
2018-08-31T10:03:48.492Z,49.53
2018-08-31T10:06:16.552Z,48.38
2018-08-31T10:08:44.747Z,47.34
2018-08-31T10:11:12.826Z,49.01
2018-08-31T10:13:40.903Z,49.90
2018-08-31T10:16:09.052Z,49.72
2018-08-31T10:18:37.167Z,48.11
2018-08-31T10:21:05.731Z,47.88
2018-08-31T10:23:33.854Z,50.56
2018-08-31T10:26:01.953Z,52.26
2018-08-31T10:28:30.105Z,52.61
2018-08-31T10:30:58.245Z,51.49
2018-08-31T10:33:26.314Z,51.21
2018-08-31T10:35:54.425Z,49.92
2018-08-31T10:38:22.530Z,47.76
2018-08-31T10:40:50.552Z,48.94
2018-08-31T10:43:18.599Z,49.10
2018-08-31T10:45:46.711Z,50.13
2018-08-31T10:48:14.876Z,48.48
2018-08-31T10:50:42.943Z,49.91
2018-08-31T10:53:11.025Z,50.14
2018-08-31T10:55:39.084Z,49.84
2018-08-31T10:58:07.604Z,49.78
2018-08-31T11:00:35.662Z,49.70
2018-08-31T11:03:03.725Z,50.20
2018-08-31T11:05:31.828Z,49.67
2018-08-31T11:07:59.857Z,49.74
2018-08-31T11:10:27.899Z,46.97
2018-08-31T11:12:56.024Z,48.76
2018-08-31T11:15:24.105Z,48.06
2018-08-31T11:17:52.127Z,50.31
2018-08-31T11:20:20.190Z,49.64
2018-08-31T11:22:48.279Z,49.82
2018-08-31T11:25:16.418Z,48.91
2018-08-31T11:27:44.501Z,49.83
2018-08-31T11:30:12.523Z,48.67
2018-08-31T11:32:40.594Z,48.49
2018-08-31T11:35:08.668Z,45.02
2018-08-31T11:37:36.767Z,45.37
2018-08-31T11:40:04.847Z,46.14
2018-08-31T11:42:32.882Z,45.93
2018-08-31T11:45:00.954Z,45.26
2018-08-31T11:47:29.076Z,44.87
2018-08-31T11:49:57.178Z,45.19
2018-08-31T11:52:25.215Z,46.97
2018-08-31T11:54:53.271Z,46.31
2018-08-31T11:57:21.323Z,46.36
2018-08-31T11:59:49.380Z,47.12
2018-08-31T12:02:17.487Z,48.99
2018-08-31T12:04:45.600Z,49.18
2018-08-31T12:07:13.646Z,49.76
2018-08-31T12:09:41.797Z,49.23
2018-08-31T12:12:09.831Z,47.71
2018-08-31T12:14:37.900Z,46.66
2018-08-31T12:17:06.089Z,47.79
2018-08-31T12:19:34.270Z,47.05
2018-08-31T12:22:02.438Z,46.36
2018-08-31T12:24:30.552Z,47.91
2018-08-31T12:26:58.739Z,47.26
2018-08-31T12:29:27.185Z,46.14
2018-08-31T12:31:55.398Z,47.79
2018-08-31T12:34:23.527Z,48.66
2018-08-31T12:36:51.588Z,49.59
2018-08-31T12:39:19.683Z,49.66
2018-08-31T12:41:47.788Z,50.18
2018-08-31T12:44:15.990Z,48.54
2018-08-31T12:46:44.012Z,47.78
2018-08-31T12:49:12.058Z,48.62
2018-08-31T12:51:40.145Z,48.39
2018-08-31T12:54:08.168Z,46.32
2018-08-31T12:56:42.783Z,48.57
2018-08-31T12:59:10.940Z,49.36
2018-08-31T13:01:39.316Z,47.81
2018-08-31T13:04:07.480Z,45.71
2018-08-31T13:06:35.524Z,46.17
2018-08-31T13:09:04.590Z,45.35
2018-08-31T13:11:32.649Z,45.91
2018-08-31T13:14:00.688Z,44.74
2018-08-31T13:16:28.744Z,44.07
2018-08-31T13:18:56.779Z,43.99
2018-08-31T13:21:24.873Z,45.07
2018-08-31T13:23:52.948Z,45.15
2018-08-31T13:26:21.563Z,44.16
2018-08-31T13:28:49.617Z,42.77
2018-08-31T13:31:17.739Z,44.54
2018-08-31T13:33:45.747Z,44.59
2018-08-31T13:36:13.791Z,44.21
2018-08-31T13:38:41.831Z,42.70
2018-08-31T13:41:09.887Z,42.88
2018-08-31T13:43:37.920Z,43.29
2018-08-31T13:46:05.959Z,42.12
2018-08-31T13:48:33.996Z,43.24
2018-08-31T13:51:02.119Z,42.56
2018-08-31T13:53:30.293Z,41.69
2018-08-31T13:55:58.357Z,41.55
2018-08-31T13:58:26.519Z,42.59
2018-08-31T14:00:54.549Z,42.77
2018-08-31T14:03:22.814Z,43.11
2018-08-31T14:05:50.868Z,42.68
2018-08-31T14:08:18.989Z,42.40
2018-08-31T14:10:47.044Z,42.68
2018-08-31T14:13:15.101Z,43.65
2018-08-31T14:15:43.283Z,43.67
2018-08-31T14:18:11.323Z,43.11
2018-08-31T14:20:39.376Z,42.66
2018-08-31T14:23:07.505Z,42.84
2018-08-31T14:25:36.056Z,44.41
2018-08-31T14:28:04.127Z,44.40
2018-08-31T14:30:32.211Z,43.22
2018-08-31T14:33:00.264Z,43.95
2018-08-31T14:35:28.371Z,43.11
2018-08-31T14:37:56.434Z,43.33
2018-08-31T14:40:24.518Z,43.20
2018-08-31T14:42:53.879Z,42.88
2018-08-31T14:45:21.927Z,43.33
2018-08-31T14:47:49.998Z,43.97
2018-08-31T14:50:18.075Z,43.43
2018-08-31T14:52:46.135Z,43.04
2018-08-31T14:55:14.174Z,42.76
2018-08-31T14:57:42.324Z,43.70
2018-08-31T15:00:10.379Z,43.23
2018-08-31T15:02:38.573Z,42.80
2018-08-31T15:05:06.646Z,42.98
2018-08-31T15:07:34.732Z,42.83
2018-08-31T15:10:02.771Z,42.88
2018-08-31T15:12:30.837Z,41.82
2018-08-31T15:14:58.898Z,43.26
2018-08-31T15:17:27.013Z,42.73
2018-08-31T15:19:55.078Z,42.67
2018-08-31T15:22:23.121Z,41.80
2018-08-31T15:24:51.187Z,42.87
2018-08-31T15:27:19.216Z,42.46
2018-08-31T15:29:47.246Z,42.20
2018-08-31T15:32:15.277Z,42.99
2018-08-31T15:34:43.348Z,43.06
2018-08-31T15:37:11.956Z,42.48
2018-08-31T15:39:40.655Z,42.81
2018-08-31T15:42:08.771Z,42.31
2018-08-31T15:44:36.846Z,42.21
2018-08-31T15:47:05.423Z,42.95
2018-08-31T15:49:33.481Z,43.05
2018-08-31T15:52:01.615Z,42.41
2018-08-31T15:54:29.687Z,42.53
2018-08-31T15:56:57.745Z,43.09
2018-08-31T15:59:25.776Z,43.13
2018-08-31T16:01:53.831Z,41.97
2018-08-31T16:04:21.876Z,43.01
2018-08-31T16:06:49.915Z,43.01
2018-08-31T16:09:18.023Z,42.84
2018-08-31T16:11:46.109Z,42.80
2018-08-31T16:14:14.190Z,44.34
2018-08-31T16:16:42.226Z,44.88
2018-08-31T16:19:10.277Z,45.59
2018-08-31T16:21:38.436Z,46.47
2018-08-31T16:24:06.495Z,46.97
2018-08-31T16:26:34.509Z,46.04
2018-08-31T16:29:02.600Z,46.32
2018-08-31T16:31:30.640Z,45.30
2018-08-31T16:33:58.667Z,45.68
2018-08-31T16:36:26.708Z,44.13
2018-08-31T16:38:54.840Z,44.21
2018-08-31T16:41:22.789Z,44.23
2018-08-31T16:43:50.839Z,44.28
2018-08-31T16:46:18.867Z,44.28
2018-08-31T16:48:46.939Z,44.41
2018-08-31T16:51:15.029Z,43.73
2018-08-31T16:53:43.042Z,44.24
2018-08-31T16:56:11.075Z,43.69
2018-08-31T16:58:39.182Z,43.77
2018-08-31T17:01:07.292Z,44.41
2018-08-31T17:03:35.390Z,44.64
2018-08-31T17:06:03.468Z,46.04
2018-08-31T17:08:31.547Z,45.92
2018-08-31T17:10:59.695Z,46.10
2018-08-31T17:13:27.756Z,46.78
2018-08-31T17:15:55.818Z,47.07
2018-08-31T17:18:23.881Z,46.82
2018-08-31T17:20:52.136Z,47.29
2018-08-31T17:23:20.196Z,47.10
2018-08-31T17:25:48.239Z,48.04
2018-08-31T17:28:21.743Z,47.77
2018-08-31T17:30:53.972Z,47.78
2018-08-31T17:33:27.334Z,48.90
2018-08-31T17:36:00.695Z,48.96
2018-08-31T17:38:28.753Z,49.52
2018-08-31T17:40:56.810Z,49.96
2018-08-31T17:43:24.884Z,50.15
2018-08-31T17:45:52.930Z,50.18
2018-08-31T17:48:21.033Z,49.42
2018-08-31T17:50:49.261Z,48.67
2018-08-31T17:53:17.516Z,48.70
2018-08-31T17:55:45.656Z,47.76
2018-08-31T17:58:13.836Z,48.46
2018-08-31T18:00:42.043Z,48.93
2018-08-31T18:03:10.158Z,49.05
2018-08-31T18:05:38.417Z,49.65
2018-08-31T18:08:06.522Z,50.67
2018-08-31T18:10:34.625Z,51.23
2018-08-31T18:13:02.697Z,51.26
2018-08-31T18:15:30.922Z,51.52
2018-08-31T18:17:58.899Z,52.17
2018-08-31T18:20:27.030Z,53.11
2018-08-31T18:22:55.190Z,53.04
2018-08-31T18:25:23.418Z,53.31
2018-08-31T18:27:51.567Z,54.21
2018-08-31T18:30:19.901Z,54.40
2018-08-31T18:32:48.199Z,55.00
2018-08-31T18:35:16.433Z,54.03
2018-08-31T18:37:44.570Z,55.23
2018-08-31T18:40:12.612Z,54.73
2018-08-31T18:42:40.664Z,55.26
2018-08-31T18:45:08.730Z,55.85
2018-08-31T18:47:36.853Z,55.64
2018-08-31T18:50:05.159Z,56.01
2018-08-31T18:52:33.357Z,56.41
2018-08-31T18:55:01.331Z,56.45
2018-08-31T18:57:29.358Z,56.50
2018-08-31T18:59:57.431Z,56.98
2018-08-31T19:02:25.492Z,56.96
2018-08-31T19:04:53.616Z,58.43
2018-08-31T19:07:21.775Z,57.57
2018-08-31T19:09:49.944Z,58.24
2018-08-31T19:12:17.985Z,58.16
2018-08-31T19:14:46.059Z,58.61
2018-08-31T19:17:14.252Z,58.82
2018-08-31T19:19:42.334Z,59.44
2018-08-31T19:22:10.414Z,59.66
2018-08-31T19:24:38.576Z,59.08
2018-08-31T19:27:07.101Z,59.46
2018-08-31T19:29:35.131Z,59.44
2018-08-31T19:32:03.192Z,60.02
2018-08-31T19:34:31.225Z,60.01
2018-08-31T19:36:59.280Z,60.36
2018-08-31T19:39:27.346Z,61.26
2018-08-31T19:41:55.511Z,60.31
2018-08-31T19:44:23.983Z,61.30
2018-08-31T19:46:52.336Z,60.69
2018-08-31T19:49:20.323Z,62.28
2018-08-31T19:51:48.423Z,61.46
2018-08-31T19:54:16.495Z,61.81
2018-08-31T19:56:44.548Z,62.30
2018-08-31T19:59:12.651Z,61.75
2018-08-31T20:01:40.969Z,61.75
2018-08-31T20:04:09.001Z,62.52
2018-08-31T20:06:37.101Z,62.41
2018-08-31T20:09:07.243Z,62.55
2018-08-31T20:11:35.285Z,62.65
2018-08-31T20:14:03.403Z,62.60
2018-08-31T20:16:31.459Z,63.07
2018-08-31T20:18:59.517Z,63.53
2018-08-31T20:21:27.603Z,64.34
2018-08-31T20:23:55.681Z,63.78
2018-08-31T20:26:23.760Z,63.99
2018-08-31T20:28:51.824Z,63.83
2018-08-31T20:31:19.874Z,64.78
2018-08-31T20:33:47.959Z,64.59
2018-08-31T20:36:16.109Z,64.81
2018-08-31T20:38:44.262Z,65.15
2018-08-31T20:41:12.303Z,65.43
2018-08-31T20:43:40.530Z,65.11
2018-08-31T20:46:08.636Z,65.24
2018-08-31T20:48:36.767Z,65.05
2018-08-31T20:51:05.119Z,65.42
2018-08-31T20:53:33.335Z,65.56
2018-08-31T20:56:01.498Z,65.83
2018-08-31T20:58:29.565Z,65.99
2018-08-31T21:00:57.724Z,66.31
2018-08-31T21:03:25.919Z,65.86
2018-08-31T21:05:54.046Z,66.35
2018-08-31T21:08:22.194Z,66.29
2018-08-31T21:10:50.263Z,66.56
2018-08-31T21:13:18.317Z,66.79
2018-08-31T21:15:46.711Z,66.31
2018-08-31T21:18:14.775Z,66.21
2018-08-31T21:20:42.823Z,66.30
2018-08-31T21:23:10.928Z,65.64
2018-08-31T21:25:38.975Z,66.13
2018-08-31T21:28:07.109Z,66.26
2018-08-31T21:30:35.165Z,65.96
2018-08-31T21:33:03.254Z,66.05
2018-08-31T21:35:31.284Z,66.34
2018-08-31T21:37:59.328Z,66.82
2018-08-31T21:40:27.399Z,66.91
2018-08-31T21:42:55.480Z,66.68
2018-08-31T21:45:23.510Z,66.67
2018-08-31T21:47:51.567Z,66.16
2018-08-31T21:50:19.659Z,67.46
2018-08-31T21:52:47.742Z,67.43
2018-08-31T21:55:15.814Z,67.05
2018-08-31T21:57:43.868Z,67.24
2018-08-31T22:00:14.443Z,68.05
2018-08-31T22:02:42.495Z,67.65
2018-08-31T22:05:10.524Z,67.94
2018-08-31T22:07:38.598Z,67.15
2018-08-31T22:10:07.063Z,67.47
2018-08-31T22:12:35.118Z,67.39
2018-08-31T22:15:03.147Z,67.39
2018-08-31T22:17:31.347Z,67.11
2018-08-31T22:19:59.395Z,67.30
2018-08-31T22:22:27.527Z,68.15
2018-08-31T22:24:55.610Z,67.66
2018-08-31T22:27:23.791Z,67.48
2018-08-31T22:29:52.017Z,67.62
2018-08-31T22:32:20.097Z,68.14
2018-08-31T22:34:48.263Z,67.73
2018-08-31T22:37:16.815Z,68.47
2018-08-31T22:39:44.887Z,68.15
2018-08-31T22:42:13.038Z,68.10
2018-08-31T22:44:41.091Z,68.11
2018-08-31T22:47:09.237Z,68.15
2018-08-31T22:49:37.381Z,68.43
2018-08-31T22:52:05.704Z,68.46
2018-08-31T22:54:33.738Z,68.70
2018-08-31T22:57:01.804Z,68.70
2018-08-31T22:59:29.899Z,68.83
2018-08-31T23:01:57.949Z,69.14
2018-08-31T23:04:26.012Z,68.33
2018-08-31T23:06:54.108Z,68.86
2018-08-31T23:09:22.207Z,69.33
2018-08-31T23:11:50.260Z,69.45
2018-08-31T23:14:18.344Z,69.15
2018-08-31T23:16:46.419Z,69.50
2018-08-31T23:19:14.491Z,69.62
2018-08-31T23:21:42.526Z,69.15
2018-08-31T23:24:10.632Z,69.03
2018-08-31T23:26:38.732Z,68.86
2018-08-31T23:29:07.000Z,69.24
2018-08-31T23:31:35.040Z,69.31
2018-08-31T23:34:03.151Z,69.40
2018-08-31T23:36:31.192Z,69.58
2018-08-31T23:38:59.280Z,69.63
2018-08-31T23:41:27.375Z,69.52
2018-08-31T23:43:55.468Z,69.79
2018-08-31T23:46:23.537Z,69.92
2018-08-31T23:48:51.620Z,70.57
2018-08-31T23:51:19.651Z,70.81
2018-08-31T23:53:47.681Z,70.42
2018-08-31T23:56:16.092Z,70.71
2018-08-31T23:58:44.143Z,70.25
